sensor_id;sensor_type;location;lat;lon;timestamp;P1;durP1;ratioP1;P2;durP2;ratioP2
19560;SDS011;9927;47.792;10.616;2023-08-06T00:02:27;6.55;;;5.72;;
19560;SDS011;9927;47.792;10.616;2023-08-06T00:04:54;6.45;;;5.85;;
19560;SDS011;9927;47.792;10.616;2023-08-06T00:07:21;5.72;;;5.32;;
19560;SDS011;9927;47.792;10.616;2023-08-06T00:09:49;5.97;;;5.57;;
19560;SDS011;9927;47.792;10.616;2023-08-06T00:12:16;5.70;;;5.30;;
19560;SDS011;9927;47.792;10.616;2023-08-06T00:14:43;6.07;;;5.57;;
19560;SDS011;9927;47.792;10.616;2023-08-06T00:17:11;6.05;;;5.63;;
19560;SDS011;9927;47.792;10.616;2023-08-06T00:19:38;5.13;;;4.82;;
19560;SDS011;9927;47.792;10.616;2023-08-06T00:22:06;5.80;;;5.30;;
19560;SDS011;9927;47.792;10.616;2023-08-06T00:24:34;5.53;;;5.22;;
19560;SDS011;9927;47.792;10.616;2023-08-06T00:27:02;5.55;;;5.15;;
19560;SDS011;9927;47.792;10.616;2023-08-06T00:29:29;6.00;;;5.60;;
19560;SDS011;9927;47.792;10.616;2023-08-06T00:31:56;6.80;;;6.30;;
19560;SDS011;9927;47.792;10.616;2023-08-06T00:34:24;6.05;;;5.60;;
19560;SDS011;9927;47.792;10.616;2023-08-06T00:36:51;5.90;;;5.50;;
19560;SDS011;9927;47.792;10.616;2023-08-06T00:39:20;5.38;;;5.00;;
19560;SDS011;9927;47.792;10.616;2023-08-06T00:41:47;5.85;;;5.28;;
19560;SDS011;9927;47.792;10.616;2023-08-06T00:44:15;4.97;;;4.57;;
19560;SDS011;9927;47.792;10.616;2023-08-06T00:46:42;4.30;;;4.10;;
19560;SDS011;9927;47.792;10.616;2023-08-06T00:49:10;5.70;;;5.20;;
19560;SDS011;9927;47.792;10.616;2023-08-06T00:51:37;5.45;;;5.05;;
19560;SDS011;9927;47.792;10.616;2023-08-06T00:54:05;4.53;;;4.30;;
19560;SDS011;9927;47.792;10.616;2023-08-06T00:56:32;5.00;;;4.80;;
19560;SDS011;9927;47.792;10.616;2023-08-06T00:59:04;4.60;;;4.40;;
19560;SDS011;9927;47.792;10.616;2023-08-06T01:01:32;4.78;;;4.47;;
19560;SDS011;9927;47.792;10.616;2023-08-06T01:04:00;3.92;;;3.72;;
19560;SDS011;9927;47.792;10.616;2023-08-06T01:06:32;4.13;;;3.90;;
19560;SDS011;9927;47.792;10.616;2023-08-06T01:09:10;4.50;;;4.18;;
19560;SDS011;9927;47.792;10.616;2023-08-06T01:12:13;4.30;;;3.97;;
19560;SDS011;9927;47.792;10.616;2023-08-06T01:15:08;4.25;;;3.95;;
19560;SDS011;9927;47.792;10.616;2023-08-06T01:17:40;4.60;;;4.30;;
19560;SDS011;9927;47.792;10.616;2023-08-06T01:20:07;4.30;;;3.92;;
19560;SDS011;9927;47.792;10.616;2023-08-06T01:22:35;4.50;;;4.00;;
19560;SDS011;9927;47.792;10.616;2023-08-06T01:25:02;3.75;;;3.65;;
19560;SDS011;9927;47.792;10.616;2023-08-06T01:30:12;4.25;;;4.05;;
19560;SDS011;9927;47.792;10.616;2023-08-06T01:32:44;5.32;;;4.05;;
19560;SDS011;9927;47.792;10.616;2023-08-06T01:35:14;4.50;;;4.20;;
19560;SDS011;9927;47.792;10.616;2023-08-06T01:37:43;4.35;;;4.15;;
19560;SDS011;9927;47.792;10.616;2023-08-06T01:40:12;4.25;;;4.05;;
19560;SDS011;9927;47.792;10.616;2023-08-06T01:42:40;4.82;;;4.15;;
19560;SDS011;9927;47.792;10.616;2023-08-06T01:45:07;4.53;;;4.18;;
19560;SDS011;9927;47.792;10.616;2023-08-06T01:47:36;4.43;;;3.80;;
19560;SDS011;9927;47.792;10.616;2023-08-06T01:50:03;4.22;;;4.03;;
19560;SDS011;9927;47.792;10.616;2023-08-06T01:52:31;4.38;;;4.18;;
19560;SDS011;9927;47.792;10.616;2023-08-06T01:54:58;4.60;;;4.20;;
19560;SDS011;9927;47.792;10.616;2023-08-06T01:57:25;4.60;;;4.20;;
19560;SDS011;9927;47.792;10.616;2023-08-06T01:59:53;4.43;;;4.22;;
19560;SDS011;9927;47.792;10.616;2023-08-06T02:02:20;4.07;;;3.88;;
19560;SDS011;9927;47.792;10.616;2023-08-06T02:04:47;5.10;;;4.80;;
19560;SDS011;9927;47.792;10.616;2023-08-06T02:07:14;4.63;;;4.32;;
19560;SDS011;9927;47.792;10.616;2023-08-06T02:09:42;4.85;;;4.55;;
19560;SDS011;9927;47.792;10.616;2023-08-06T02:12:09;4.30;;;4.10;;
19560;SDS011;9927;47.792;10.616;2023-08-06T02:14:36;4.78;;;4.47;;
19560;SDS011;9927;47.792;10.616;2023-08-06T02:17:04;4.95;;;4.30;;
19560;SDS011;9927;47.792;10.616;2023-08-06T02:19:31;3.92;;;3.72;;
19560;SDS011;9927;47.792;10.616;2023-08-06T02:21:58;4.35;;;4.07;;
19560;SDS011;9927;47.792;10.616;2023-08-06T02:24:25;4.55;;;4.30;;
19560;SDS011;9927;47.792;10.616;2023-08-06T02:26:52;4.70;;;4.40;;
19560;SDS011;9927;47.792;10.616;2023-08-06T02:29:22;4.30;;;4.00;;
19560;SDS011;9927;47.792;10.616;2023-08-06T02:31:49;4.47;;;4.13;;
19560;SDS011;9927;47.792;10.616;2023-08-06T02:34:17;5.00;;;4.57;;
19560;SDS011;9927;47.792;10.616;2023-08-06T02:36:44;4.80;;;4.50;;
19560;SDS011;9927;47.792;10.616;2023-08-06T02:39:11;4.10;;;3.88;;
19560;SDS011;9927;47.792;10.616;2023-08-06T02:41:39;4.28;;;4.07;;
19560;SDS011;9927;47.792;10.616;2023-08-06T02:44:06;4.80;;;4.50;;
19560;SDS011;9927;47.792;10.616;2023-08-06T02:46:33;4.15;;;3.90;;
19560;SDS011;9927;47.792;10.616;2023-08-06T02:49:00;4.47;;;4.20;;
19560;SDS011;9927;47.792;10.616;2023-08-06T02:51:28;4.53;;;4.30;;
19560;SDS011;9927;47.792;10.616;2023-08-06T02:53:55;4.20;;;4.00;;
19560;SDS011;9927;47.792;10.616;2023-08-06T02:56:22;4.30;;;4.00;;
19560;SDS011;9927;47.792;10.616;2023-08-06T02:58:49;4.30;;;4.10;;
19560;SDS011;9927;47.792;10.616;2023-08-06T03:01:17;4.28;;;3.97;;
19560;SDS011;9927;47.792;10.616;2023-08-06T03:03:44;4.72;;;4.43;;
19560;SDS011;9927;47.792;10.616;2023-08-06T03:06:11;4.57;;;4.18;;
19560;SDS011;9927;47.792;10.616;2023-08-06T03:08:39;4.30;;;4.10;;
19560;SDS011;9927;47.792;10.616;2023-08-06T03:11:06;4.25;;;4.05;;
19560;SDS011;9927;47.792;10.616;2023-08-06T03:13:33;5.57;;;4.55;;
19560;SDS011;9927;47.792;10.616;2023-08-06T03:16:01;4.72;;;4.20;;
19560;SDS011;9927;47.792;10.616;2023-08-06T03:18:28;4.47;;;4.15;;
19560;SDS011;9927;47.792;10.616;2023-08-06T03:20:55;4.43;;;4.13;;
19560;SDS011;9927;47.792;10.616;2023-08-06T03:23:23;4.40;;;4.20;;
19560;SDS011;9927;47.792;10.616;2023-08-06T03:25:50;4.68;;;4.38;;
19560;SDS011;9927;47.792;10.616;2023-08-06T03:28:18;4.15;;;3.90;;
19560;SDS011;9927;47.792;10.616;2023-08-06T03:30:45;4.07;;;3.88;;
19560;SDS011;9927;47.792;10.616;2023-08-06T03:33:12;5.22;;;4.70;;
19560;SDS011;9927;47.792;10.616;2023-08-06T03:35:40;4.32;;;4.03;;
19560;SDS011;9927;47.792;10.616;2023-08-06T03:38:07;4.43;;;4.13;;
19560;SDS011;9927;47.792;10.616;2023-08-06T03:40:34;4.45;;;4.15;;
19560;SDS011;9927;47.792;10.616;2023-08-06T03:43:02;4.53;;;4.13;;
19560;SDS011;9927;47.792;10.616;2023-08-06T03:45:30;4.30;;;4.10;;
19560;SDS011;9927;47.792;10.616;2023-08-06T03:47:57;4.63;;;4.32;;
19560;SDS011;9927;47.792;10.616;2023-08-06T03:50:24;4.13;;;3.92;;
19560;SDS011;9927;47.792;10.616;2023-08-06T03:52:51;3.80;;;3.60;;
19560;SDS011;9927;47.792;10.616;2023-08-06T03:55:19;3.90;;;3.70;;
19560;SDS011;9927;47.792;10.616;2023-08-06T03:57:46;4.25;;;3.78;;
19560;SDS011;9927;47.792;10.616;2023-08-06T04:00:13;3.90;;;3.70;;
19560;SDS011;9927;47.792;10.616;2023-08-06T04:02:41;5.25;;;3.80;;
19560;SDS011;9927;47.792;10.616;2023-08-06T04:05:08;3.80;;;3.60;;
19560;SDS011;9927;47.792;10.616;2023-08-06T04:07:36;4.13;;;3.92;;
19560;SDS011;9927;47.792;10.616;2023-08-06T04:10:04;3.78;;;3.58;;
19560;SDS011;9927;47.792;10.616;2023-08-06T04:12:31;3.88;;;3.67;;
19560;SDS011;9927;47.792;10.616;2023-08-06T04:15:03;4.03;;;3.80;;
19560;SDS011;9927;47.792;10.616;2023-08-06T04:17:30;4.30;;;4.00;;
19560;SDS011;9927;47.792;10.616;2023-08-06T04:19:58;4.10;;;3.90;;
19560;SDS011;9927;47.792;10.616;2023-08-06T04:22:25;4.18;;;3.90;;
19560;SDS011;9927;47.792;10.616;2023-08-06T04:24:53;4.05;;;3.85;;
19560;SDS011;9927;47.792;10.616;2023-08-06T04:27:20;4.40;;;4.03;;
19560;SDS011;9927;47.792;10.616;2023-08-06T04:29:47;4.38;;;3.97;;
19560;SDS011;9927;47.792;10.616;2023-08-06T04:32:15;4.03;;;3.80;;
19560;SDS011;9927;47.792;10.616;2023-08-06T04:34:42;3.90;;;3.70;;
19560;SDS011;9927;47.792;10.616;2023-08-06T04:37:10;3.63;;;3.47;;
19560;SDS011;9927;47.792;10.616;2023-08-06T04:39:37;3.55;;;3.35;;
19560;SDS011;9927;47.792;10.616;2023-08-06T04:42:04;3.92;;;3.65;;
19560;SDS011;9927;47.792;10.616;2023-08-06T04:44:32;3.47;;;3.28;;
19560;SDS011;9927;47.792;10.616;2023-08-06T04:46:59;4.85;;;3.58;;
19560;SDS011;9927;47.792;10.616;2023-08-06T04:49:26;3.78;;;3.58;;
19560;SDS011;9927;47.792;10.616;2023-08-06T04:51:53;3.90;;;3.70;;
19560;SDS011;9927;47.792;10.616;2023-08-06T04:54:21;3.28;;;3.17;;
19560;SDS011;9927;47.792;10.616;2023-08-06T04:56:48;3.22;;;3.10;;
19560;SDS011;9927;47.792;10.616;2023-08-06T04:59:16;3.20;;;3.00;;
19560;SDS011;9927;47.792;10.616;2023-08-06T05:01:43;3.30;;;3.20;;
19560;SDS011;9927;47.792;10.616;2023-08-06T05:04:10;3.92;;;3.22;;
19560;SDS011;9927;47.792;10.616;2023-08-06T05:06:38;3.30;;;3.20;;
19560;SDS011;9927;47.792;10.616;2023-08-06T05:09:05;3.05;;;2.90;;
19560;SDS011;9927;47.792;10.616;2023-08-06T05:11:33;3.10;;;2.95;;
19560;SDS011;9927;47.792;10.616;2023-08-06T05:14:00;2.90;;;2.80;;
19560;SDS011;9927;47.792;10.616;2023-08-06T05:16:27;3.35;;;3.05;;
19560;SDS011;9927;47.792;10.616;2023-08-06T05:18:55;3.30;;;3.00;;
19560;SDS011;9927;47.792;10.616;2023-08-06T05:21:22;2.90;;;2.80;;
19560;SDS011;9927;47.792;10.616;2023-08-06T05:23:49;2.80;;;2.70;;
19560;SDS011;9927;47.792;10.616;2023-08-06T05:26:17;3.35;;;3.05;;
19560;SDS011;9927;47.792;10.616;2023-08-06T05:28:46;3.70;;;3.40;;
19560;SDS011;9927;47.792;10.616;2023-08-06T05:31:13;3.13;;;2.97;;
19560;SDS011;9927;47.792;10.616;2023-08-06T05:33:41;2.80;;;2.70;;
19560;SDS011;9927;47.792;10.616;2023-08-06T05:36:08;3.05;;;2.95;;
19560;SDS011;9927;47.792;10.616;2023-08-06T05:38:35;3.22;;;3.10;;
19560;SDS011;9927;47.792;10.616;2023-08-06T05:41:02;2.97;;;2.88;;
19560;SDS011;9927;47.792;10.616;2023-08-06T05:43:30;3.28;;;3.08;;
19560;SDS011;9927;47.792;10.616;2023-08-06T05:45:57;3.10;;;2.90;;
19560;SDS011;9927;47.792;10.616;2023-08-06T05:48:25;3.55;;;3.35;;
19560;SDS011;9927;47.792;10.616;2023-08-06T05:50:54;3.72;;;3.50;;
19560;SDS011;9927;47.792;10.616;2023-08-06T05:53:21;3.70;;;3.42;;
19560;SDS011;9927;47.792;10.616;2023-08-06T05:55:49;3.60;;;3.40;;
19560;SDS011;9927;47.792;10.616;2023-08-06T05:58:16;4.40;;;3.40;;
19560;SDS011;9927;47.792;10.616;2023-08-06T06:00:44;3.70;;;3.50;;
19560;SDS011;9927;47.792;10.616;2023-08-06T06:03:11;3.95;;;3.75;;
19560;SDS011;9927;47.792;10.616;2023-08-06T06:05:39;10.93;;;4.22;;
19560;SDS011;9927;47.792;10.616;2023-08-06T06:08:06;3.30;;;3.10;;
19560;SDS011;9927;47.792;10.616;2023-08-06T06:10:33;4.30;;;3.45;;
19560;SDS011;9927;47.792;10.616;2023-08-06T06:13:02;3.10;;;3.00;;
19560;SDS011;9927;47.792;10.616;2023-08-06T06:15:29;3.17;;;3.00;;
19560;SDS011;9927;47.792;10.616;2023-08-06T06:17:56;5.25;;;2.85;;
19560;SDS011;9927;47.792;10.616;2023-08-06T06:20:24;2.80;;;2.70;;
19560;SDS011;9927;47.792;10.616;2023-08-06T06:22:51;3.95;;;3.22;;
19560;SDS011;9927;47.792;10.616;2023-08-06T06:25:18;3.13;;;2.92;;
19560;SDS011;9927;47.792;10.616;2023-08-06T06:27:45;2.90;;;2.70;;
19560;SDS011;9927;47.792;10.616;2023-08-06T06:30:13;3.30;;;3.10;;
19560;SDS011;9927;47.792;10.616;2023-08-06T06:32:41;4.15;;;3.08;;
19560;SDS011;9927;47.792;10.616;2023-08-06T06:35:08;3.08;;;2.88;;
19560;SDS011;9927;47.792;10.616;2023-08-06T06:37:36;5.53;;;2.90;;
19560;SDS011;9927;47.792;10.616;2023-08-06T06:40:04;3.58;;;3.28;;
19560;SDS011;9927;47.792;10.616;2023-08-06T06:42:31;3.10;;;2.90;;
19560;SDS011;9927;47.792;10.616;2023-08-06T06:44:59;3.25;;;3.10;;
19560;SDS011;9927;47.792;10.616;2023-08-06T06:47:26;4.97;;;3.80;;
19560;SDS011;9927;47.792;10.616;2023-08-06T06:49:53;3.25;;;2.92;;
19560;SDS011;9927;47.792;10.616;2023-08-06T06:52:20;2.83;;;2.63;;
19560;SDS011;9927;47.792;10.616;2023-08-06T06:54:48;3.92;;;2.65;;
19560;SDS011;9927;47.792;10.616;2023-08-06T06:57:15;3.15;;;2.80;;
19560;SDS011;9927;47.792;10.616;2023-08-06T06:59:42;2.55;;;2.40;;
19560;SDS011;9927;47.792;10.616;2023-08-06T07:02:09;2.50;;;2.40;;
19560;SDS011;9927;47.792;10.616;2023-08-06T07:04:37;2.70;;;2.50;;
19560;SDS011;9927;47.792;10.616;2023-08-06T07:07:04;2.30;;;2.13;;
19560;SDS011;9927;47.792;10.616;2023-08-06T07:09:31;2.67;;;2.58;;
19560;SDS011;9927;47.792;10.616;2023-08-06T07:11:59;2.55;;;2.40;;
19560;SDS011;9927;47.792;10.616;2023-08-06T07:14:26;2.10;;;2.00;;
19560;SDS011;9927;47.792;10.616;2023-08-06T07:16:55;2.75;;;2.30;;
19560;SDS011;9927;47.792;10.616;2023-08-06T07:19:23;2.20;;;2.10;;
19560;SDS011;9927;47.792;10.616;2023-08-06T07:21:50;2.88;;;2.67;;
19560;SDS011;9927;47.792;10.616;2023-08-06T07:24:18;4.55;;;2.40;;
19560;SDS011;9927;47.792;10.616;2023-08-06T07:26:45;2.10;;;1.95;;
19560;SDS011;9927;47.792;10.616;2023-08-06T07:29:13;2.33;;;1.95;;
19560;SDS011;9927;47.792;10.616;2023-08-06T07:31:40;1.52;;;1.42;;
19560;SDS011;9927;47.792;10.616;2023-08-06T07:34:07;2.03;;;1.40;;
19560;SDS011;9927;47.792;10.616;2023-08-06T07:36:34;1.30;;;1.30;;
19560;SDS011;9927;47.792;10.616;2023-08-06T07:39:01;1.20;;;1.20;;
19560;SDS011;9927;47.792;10.616;2023-08-06T07:41:31;1.30;;;1.30;;
19560;SDS011;9927;47.792;10.616;2023-08-06T07:43:58;1.02;;;1.02;;
19560;SDS011;9927;47.792;10.616;2023-08-06T07:46:25;1.48;;;1.40;;
19560;SDS011;9927;47.792;10.616;2023-08-06T07:48:53;3.17;;;1.60;;
19560;SDS011;9927;47.792;10.616;2023-08-06T07:51:20;1.90;;;1.80;;
19560;SDS011;9927;47.792;10.616;2023-08-06T07:53:47;1.73;;;1.73;;
19560;SDS011;9927;47.792;10.616;2023-08-06T07:56:14;1.92;;;1.83;;
19560;SDS011;9927;47.792;10.616;2023-08-06T07:58:41;1.83;;;1.67;;
19560;SDS011;9927;47.792;10.616;2023-08-06T08:01:09;1.60;;;1.60;;
19560;SDS011;9927;47.792;10.616;2023-08-06T08:03:36;2.03;;;1.92;;
19560;SDS011;9927;47.792;10.616;2023-08-06T08:06:03;1.90;;;1.80;;
19560;SDS011;9927;47.792;10.616;2023-08-06T08:08:31;1.60;;;1.60;;
19560;SDS011;9927;47.792;10.616;2023-08-06T08:10:58;3.03;;;1.77;;
19560;SDS011;9927;47.792;10.616;2023-08-06T08:13:27;1.90;;;1.80;;
19560;SDS011;9927;47.792;10.616;2023-08-06T08:15:57;3.22;;;2.08;;
19560;SDS011;9927;47.792;10.616;2023-08-06T08:18:25;3.33;;;1.75;;
19560;SDS011;9927;47.792;10.616;2023-08-06T08:20:53;1.90;;;1.80;;
19560;SDS011;9927;47.792;10.616;2023-08-06T08:23:20;1.80;;;1.70;;
19560;SDS011;9927;47.792;10.616;2023-08-06T08:25:48;1.95;;;1.95;;
19560;SDS011;9927;47.792;10.616;2023-08-06T08:28:15;2.88;;;1.90;;
19560;SDS011;9927;47.792;10.616;2023-08-06T08:30:42;1.60;;;1.60;;
19560;SDS011;9927;47.792;10.616;2023-08-06T08:33:10;2.33;;;1.98;;
19560;SDS011;9927;47.792;10.616;2023-08-06T08:35:37;17.77;;;3.92;;
19560;SDS011;9927;47.792;10.616;2023-08-06T08:38:04;7.20;;;2.83;;
19560;SDS011;9927;47.792;10.616;2023-08-06T08:40:32;5.30;;;2.90;;
19560;SDS011;9927;47.792;10.616;2023-08-06T08:43:02;3.05;;;2.75;;
19560;SDS011;9927;47.792;10.616;2023-08-06T08:45:30;5.60;;;3.45;;
19560;SDS011;9927;47.792;10.616;2023-08-06T08:48:01;1.92;;;1.83;;
19560;SDS011;9927;47.792;10.616;2023-08-06T08:50:28;2.63;;;2.42;;
19560;SDS011;9927;47.792;10.616;2023-08-06T08:52:56;3.08;;;2.78;;
19560;SDS011;9927;47.792;10.616;2023-08-06T08:55:24;2.47;;;2.30;;
19560;SDS011;9927;47.792;10.616;2023-08-06T08:57:51;3.88;;;3.00;;
19560;SDS011;9927;47.792;10.616;2023-08-06T09:00:18;2.83;;;2.45;;
19560;SDS011;9927;47.792;10.616;2023-08-06T09:02:46;4.22;;;2.47;;
19560;SDS011;9927;47.792;10.616;2023-08-06T09:05:14;2.53;;;2.33;;
19560;SDS011;9927;47.792;10.616;2023-08-06T09:07:42;3.70;;;2.50;;
19560;SDS011;9927;47.792;10.616;2023-08-06T09:10:11;4.85;;;2.70;;
19560;SDS011;9927;47.792;10.616;2023-08-06T09:12:40;3.90;;;2.67;;
19560;SDS011;9927;47.792;10.616;2023-08-06T09:15:08;2.80;;;2.33;;
19560;SDS011;9927;47.792;10.616;2023-08-06T09:17:36;2.50;;;2.30;;
19560;SDS011;9927;47.792;10.616;2023-08-06T09:20:12;2.72;;;2.47;;
19560;SDS011;9927;47.792;10.616;2023-08-06T09:22:40;3.70;;;2.30;;
19560;SDS011;9927;47.792;10.616;2023-08-06T09:25:08;2.55;;;2.25;;
19560;SDS011;9927;47.792;10.616;2023-08-06T09:27:40;1.85;;;1.75;;
19560;SDS011;9927;47.792;10.616;2023-08-06T09:30:12;2.13;;;2.03;;
19560;SDS011;9927;47.792;10.616;2023-08-06T09:33:02;4.13;;;2.65;;
19560;SDS011;9927;47.792;10.616;2023-08-06T09:35:30;3.10;;;2.65;;
19560;SDS011;9927;47.792;10.616;2023-08-06T09:38:08;2.17;;;2.08;;
19560;SDS011;9927;47.792;10.616;2023-08-06T09:40:37;2.20;;;2.10;;
19560;SDS011;9927;47.792;10.616;2023-08-06T09:43:06;1.80;;;1.80;;
19560;SDS011;9927;47.792;10.616;2023-08-06T09:45:35;2.60;;;2.40;;
19560;SDS011;9927;47.792;10.616;2023-08-06T09:48:04;2.00;;;1.90;;
19560;SDS011;9927;47.792;10.616;2023-08-06T09:50:34;2.35;;;2.03;;
19560;SDS011;9927;47.792;10.616;2023-08-06T09:53:04;3.85;;;2.70;;
19560;SDS011;9927;47.792;10.616;2023-08-06T09:55:32;3.70;;;2.85;;
19560;SDS011;9927;47.792;10.616;2023-08-06T09:58:00;3.10;;;2.20;;
19560;SDS011;9927;47.792;10.616;2023-08-06T10:00:27;2.20;;;2.10;;
19560;SDS011;9927;47.792;10.616;2023-08-06T10:02:59;2.17;;;1.92;;
19560;SDS011;9927;47.792;10.616;2023-08-06T10:05:27;2.30;;;2.20;;
19560;SDS011;9927;47.792;10.616;2023-08-06T10:07:56;3.70;;;2.65;;
19560;SDS011;9927;47.792;10.616;2023-08-06T10:10:25;3.92;;;2.60;;
19560;SDS011;9927;47.792;10.616;2023-08-06T10:12:55;3.83;;;2.42;;
19560;SDS011;9927;47.792;10.616;2023-08-06T10:15:25;13.60;;;3.53;;
19560;SDS011;9927;47.792;10.616;2023-08-06T10:17:56;2.55;;;2.40;;
19560;SDS011;9927;47.792;10.616;2023-08-06T10:20:25;2.58;;;2.38;;
19560;SDS011;9927;47.792;10.616;2023-08-06T10:23:02;5.38;;;2.40;;
19560;SDS011;9927;47.792;10.616;2023-08-06T10:25:31;4.30;;;2.90;;
19560;SDS011;9927;47.792;10.616;2023-08-06T10:28:00;1.95;;;1.92;;
19560;SDS011;9927;47.792;10.616;2023-08-06T10:30:40;3.90;;;2.40;;
19560;SDS011;9927;47.792;10.616;2023-08-06T10:33:09;8.13;;;2.97;;
19560;SDS011;9927;47.792;10.616;2023-08-06T10:35:46;3.22;;;3.00;;
19560;SDS011;9927;47.792;10.616;2023-08-06T10:38:18;2.78;;;2.10;;
19560;SDS011;9927;47.792;10.616;2023-08-06T10:45:59;5.68;;;3.53;;
19560;SDS011;9927;47.792;10.616;2023-08-06T10:51:03;2.58;;;2.38;;
19560;SDS011;9927;47.792;10.616;2023-08-06T10:53:34;2.42;;;2.20;;
19560;SDS011;9927;47.792;10.616;2023-08-06T10:56:07;2.72;;;2.50;;
19560;SDS011;9927;47.792;10.616;2023-08-06T10:58:49;1.95;;;1.85;;
19560;SDS011;9927;47.792;10.616;2023-08-06T11:01:17;3.90;;;2.47;;
19560;SDS011;9927;47.792;10.616;2023-08-06T11:03:46;2.10;;;2.00;;
19560;SDS011;9927;47.792;10.616;2023-08-06T11:06:19;2.28;;;2.17;;
19560;SDS011;9927;47.792;10.616;2023-08-06T11:08:50;2.33;;;2.22;;
19560;SDS011;9927;47.792;10.616;2023-08-06T11:11:21;2.50;;;2.30;;
19560;SDS011;9927;47.792;10.616;2023-08-06T11:13:50;2.40;;;2.30;;
19560;SDS011;9927;47.792;10.616;2023-08-06T11:16:19;2.20;;;2.10;;
19560;SDS011;9927;47.792;10.616;2023-08-06T11:18:48;2.40;;;2.30;;
19560;SDS011;9927;47.792;10.616;2023-08-06T11:21:18;2.33;;;2.20;;
19560;SDS011;9927;47.792;10.616;2023-08-06T11:23:51;2.38;;;2.28;;
19560;SDS011;9927;47.792;10.616;2023-08-06T11:26:20;2.05;;;2.00;;
19560;SDS011;9927;47.792;10.616;2023-08-06T11:28:48;2.35;;;2.25;;
19560;SDS011;9927;47.792;10.616;2023-08-06T11:31:22;2.53;;;2.40;;
19560;SDS011;9927;47.792;10.616;2023-08-06T11:33:50;2.40;;;2.30;;
19560;SDS011;9927;47.792;10.616;2023-08-06T11:36:28;2.20;;;2.10;;
19560;SDS011;9927;47.792;10.616;2023-08-06T11:38:59;2.45;;;2.33;;
19560;SDS011;9927;47.792;10.616;2023-08-06T11:41:29;1.80;;;1.80;;
19560;SDS011;9927;47.792;10.616;2023-08-06T11:43:57;2.47;;;2.38;;
19560;SDS011;9927;47.792;10.616;2023-08-06T11:46:25;2.03;;;1.98;;
19560;SDS011;9927;47.792;10.616;2023-08-06T11:48:56;2.10;;;2.00;;
19560;SDS011;9927;47.792;10.616;2023-08-06T11:51:26;2.10;;;2.00;;
19560;SDS011;9927;47.792;10.616;2023-08-06T11:53:56;1.90;;;1.80;;
19560;SDS011;9927;47.792;10.616;2023-08-06T11:56:25;2.50;;;2.30;;
19560;SDS011;9927;47.792;10.616;2023-08-06T11:58:56;4.53;;;2.38;;
19560;SDS011;9927;47.792;10.616;2023-08-06T12:01:23;3.42;;;2.40;;
19560;SDS011;9927;47.792;10.616;2023-08-06T12:03:52;2.60;;;2.40;;
19560;SDS011;9927;47.792;10.616;2023-08-06T12:06:27;3.40;;;2.00;;
19560;SDS011;9927;47.792;10.616;2023-08-06T12:08:54;2.70;;;2.00;;
19560;SDS011;9927;47.792;10.616;2023-08-06T12:11:22;1.50;;;1.50;;
19560;SDS011;9927;47.792;10.616;2023-08-06T12:13:51;1.70;;;1.70;;
19560;SDS011;9927;47.792;10.616;2023-08-06T12:16:18;2.25;;;2.10;;
19560;SDS011;9927;47.792;10.616;2023-08-06T12:18:47;2.85;;;2.65;;
19560;SDS011;9927;47.792;10.616;2023-08-06T12:21:16;2.00;;;1.90;;
19560;SDS011;9927;47.792;10.616;2023-08-06T12:23:43;1.92;;;1.90;;
19560;SDS011;9927;47.792;10.616;2023-08-06T12:26:10;2.20;;;2.10;;
19560;SDS011;9927;47.792;10.616;2023-08-06T12:28:37;2.42;;;2.17;;
19560;SDS011;9927;47.792;10.616;2023-08-06T12:31:05;2.00;;;1.88;;
19560;SDS011;9927;47.792;10.616;2023-08-06T12:33:32;1.80;;;1.70;;
19560;SDS011;9927;47.792;10.616;2023-08-06T12:35:59;2.80;;;2.60;;
19560;SDS011;9927;47.792;10.616;2023-08-06T12:38:27;3.38;;;2.80;;
19560;SDS011;9927;47.792;10.616;2023-08-06T12:40:54;2.75;;;2.22;;
19560;SDS011;9927;47.792;10.616;2023-08-06T12:43:21;2.50;;;2.20;;
19560;SDS011;9927;47.792;10.616;2023-08-06T12:45:48;2.58;;;2.40;;
19560;SDS011;9927;47.792;10.616;2023-08-06T12:48:17;2.70;;;2.50;;
19560;SDS011;9927;47.792;10.616;2023-08-06T12:50:47;2.50;;;2.40;;
19560;SDS011;9927;47.792;10.616;2023-08-06T12:53:17;4.75;;;2.42;;
19560;SDS011;9927;47.792;10.616;2023-08-06T12:55:44;2.80;;;2.42;;
19560;SDS011;9927;47.792;10.616;2023-08-06T12:58:14;12.32;;;3.13;;
19560;SDS011;9927;47.792;10.616;2023-08-06T13:00:41;9.05;;;2.45;;
19560;SDS011;9927;47.792;10.616;2023-08-06T13:03:09;5.20;;;2.25;;
19560;SDS011;9927;47.792;10.616;2023-08-06T13:05:40;2.75;;;2.60;;
19560;SDS011;9927;47.792;10.616;2023-08-06T13:08:08;6.80;;;2.53;;
19560;SDS011;9927;47.792;10.616;2023-08-06T13:10:36;13.80;;;4.20;;
19560;SDS011;9927;47.792;10.616;2023-08-06T13:13:04;2.60;;;2.20;;
19560;SDS011;9927;47.792;10.616;2023-08-06T13:15:31;10.48;;;3.35;;
19560;SDS011;9927;47.792;10.616;2023-08-06T13:17:59;6.57;;;2.95;;
19560;SDS011;9927;47.792;10.616;2023-08-06T13:20:32;10.57;;;3.20;;
19560;SDS011;9927;47.792;10.616;2023-08-06T13:23:00;8.20;;;2.80;;
19560;SDS011;9927;47.792;10.616;2023-08-06T13:25:28;2.92;;;2.78;;
19560;SDS011;9927;47.792;10.616;2023-08-06T13:27:55;2.83;;;2.63;;
19560;SDS011;9927;47.792;10.616;2023-08-06T13:30:22;2.60;;;2.38;;
19560;SDS011;9927;47.792;10.616;2023-08-06T13:32:50;2.63;;;2.25;;
19560;SDS011;9927;47.792;10.616;2023-08-06T13:35:19;2.38;;;2.28;;
19560;SDS011;9927;47.792;10.616;2023-08-06T13:37:47;2.95;;;2.75;;
19560;SDS011;9927;47.792;10.616;2023-08-06T13:40:18;1.80;;;1.80;;
19560;SDS011;9927;47.792;10.616;2023-08-06T13:42:46;7.78;;;2.40;;
19560;SDS011;9927;47.792;10.616;2023-08-06T13:45:13;2.22;;;2.13;;
19560;SDS011;9927;47.792;10.616;2023-08-06T13:47:41;7.10;;;2.53;;
19560;SDS011;9927;47.792;10.616;2023-08-06T13:50:14;2.20;;;2.10;;
19560;SDS011;9927;47.792;10.616;2023-08-06T13:52:41;2.88;;;2.42;;
19560;SDS011;9927;47.792;10.616;2023-08-06T13:55:10;2.38;;;2.28;;
19560;SDS011;9927;47.792;10.616;2023-08-06T13:57:38;2.65;;;2.35;;
19560;SDS011;9927;47.792;10.616;2023-08-06T14:00:05;2.42;;;2.00;;
19560;SDS011;9927;47.792;10.616;2023-08-06T14:02:33;1.90;;;1.80;;
19560;SDS011;9927;47.792;10.616;2023-08-06T14:05:00;6.60;;;2.58;;
19560;SDS011;9927;47.792;10.616;2023-08-06T14:07:28;3.53;;;2.42;;
19560;SDS011;9927;47.792;10.616;2023-08-06T14:09:55;7.93;;;2.95;;
19560;SDS011;9927;47.792;10.616;2023-08-06T14:12:24;10.70;;;3.28;;
19560;SDS011;9927;47.792;10.616;2023-08-06T14:14:51;2.22;;;2.10;;
19560;SDS011;9927;47.792;10.616;2023-08-06T14:17:19;8.93;;;2.72;;
19560;SDS011;9927;47.792;10.616;2023-08-06T14:19:46;6.38;;;3.13;;
19560;SDS011;9927;47.792;10.616;2023-08-06T14:22:13;5.43;;;2.47;;
19560;SDS011;9927;47.792;10.616;2023-08-06T14:24:40;3.40;;;2.70;;
19560;SDS011;9927;47.792;10.616;2023-08-06T14:27:09;4.70;;;2.90;;
19560;SDS011;9927;47.792;10.616;2023-08-06T14:29:41;6.53;;;2.40;;
19560;SDS011;9927;47.792;10.616;2023-08-06T14:32:08;2.10;;;2.00;;
19560;SDS011;9927;47.792;10.616;2023-08-06T14:34:39;1.60;;;1.60;;
19560;SDS011;9927;47.792;10.616;2023-08-06T14:37:06;2.38;;;2.28;;
19560;SDS011;9927;47.792;10.616;2023-08-06T14:39:34;2.45;;;2.35;;
19560;SDS011;9927;47.792;10.616;2023-08-06T14:42:04;2.53;;;2.40;;
19560;SDS011;9927;47.792;10.616;2023-08-06T14:44:31;2.55;;;2.10;;
19560;SDS011;9927;47.792;10.616;2023-08-06T14:46:59;2.20;;;2.10;;
19560;SDS011;9927;47.792;10.616;2023-08-06T14:49:26;2.42;;;2.22;;
19560;SDS011;9927;47.792;10.616;2023-08-06T14:51:53;2.00;;;2.00;;
19560;SDS011;9927;47.792;10.616;2023-08-06T14:54:21;2.00;;;1.90;;
19560;SDS011;9927;47.792;10.616;2023-08-06T14:56:48;2.17;;;2.08;;
19560;SDS011;9927;47.792;10.616;2023-08-06T14:59:15;1.88;;;1.80;;
19560;SDS011;9927;47.792;10.616;2023-08-06T15:01:42;1.70;;;1.70;;
19560;SDS011;9927;47.792;10.616;2023-08-06T15:04:10;1.90;;;1.90;;
19560;SDS011;9927;47.792;10.616;2023-08-06T15:06:37;1.50;;;1.50;;